Time;durP1;ratioP1;P1;durP2;ratioP2;P2;SDS_P1;SDS_P2;PMS_P1;PMS_P2;Temp;Humidity;BMP_temperature;BMP_pressure;BME280_temperature;BME280_humidity;BME280_pressure;Samples;Min_cycle;Max_cycle;Signal;HPM_P1;HPM_P2
2021/12/15 06:10:25;;;;;;;;;;;;;;;2.74;100.00;99435.72;4906330;23;19935;-68
2021/12/15 06:12:53;;;;;;;;;;;;;;;2.77;100.00;99437.84;4896383;29;19938;-69
2021/12/15 06:15:24;;;;;;;;;;;;;;;2.82;100.00;99445.16;4898121;29;19932;-68
2021/12/15 06:17:52;;;;;;;;;;;;;;;2.86;100.00;99455.25;4898601;29;19938;-73
2021/12/15 06:20:20;;;;;;;;;;;;;;;2.84;100.00;99449.22;4898494;29;19936;-69
2021/12/15 06:22:47;;;;;;;;;;;;;;;2.80;100.00;99448.25;4899261;29;19932;-69
2021/12/15 06:25:15;;;;;;;;;;;;;;;2.75;100.00;99450.34;4899438;29;19934;-72
2021/12/15 06:27:42;;;;;;;;;;;;;;;2.73;100.00;99453.44;4898211;29;19927;-69
2021/12/15 06:30:09;;;;;;;;;;;;;;;2.72;100.00;99445.44;4895239;29;19936;-70
2021/12/15 06:32:37;;;;;;;;;;;;;;;2.68;100.00;99442.53;4892846;29;19958;-70
2021/12/15 06:35:05;;;;;;;;;;;;;;;2.64;100.00;99441.53;4900718;29;19931;-69
2021/12/15 06:37:33;;;;;;;;;;;;;;;2.65;100.00;99435.69;4898544;29;20383;-77
2021/12/15 06:40:00;;;;;;;;;;;;;;;2.69;100.00;99440.59;4898795;29;19928;-69
2021/12/15 06:42:29;;;;;;;;;;;;;;;2.69;100.00;99432.28;4897784;29;19935;-69
2021/12/15 06:44:57;;;;;;;;;;;;;;;2.69;100.00;99435.84;4898622;29;20516;-69
2021/12/15 06:57:17;;;;;;;;;;;;;;;2.72;100.00;99440.75;4899041;29;19942;-69
2021/12/15 06:58:30;;;;;;;;;;;;;;;3.04;100.00;99448.66;4897673;29;19928;-69
2021/12/15 07:00:59;;;;;;;;;;;;;;;3.14;100.00;99444.78;4897347;29;19928;-69
2021/12/15 07:03:26;;;;;;;;;;;;;;;3.21;100.00;99445.94;4898445;29;19935;-69
2021/12/15 07:05:57;;;;;;;;;;;;;;;3.25;100.00;99452.44;4898537;29;19931;-69
2021/12/15 07:08:28;;;;;;;;;;;;;;;3.31;100.00;99453.94;4897685;29;20309;-69
2021/12/15 07:10:56;;;;;;;;;;;;;;;3.37;100.00;99454.59;4892588;29;19938;-69
2021/12/15 07:13:25;;;;;;;;;;;;;;;3.46;100.00;99457.38;4877735;29;19932;-70
2021/12/15 07:15:59;;;;;;;;;;;;;;;3.54;100.00;99468.47;4878493;29;20329;-69
2021/12/15 07:18:37;;;;;;;;;;;;;;;3.63;100.00;99480.34;4896901;29;19938;-69
2021/12/15 07:21:08;;;;;;;;;;;;;;;3.76;100.00;99473.03;4897278;29;20236;-69
2021/12/15 07:23:36;;;;;;;;;;;;;;;3.94;100.00;99482.94;4896992;29;19938;-69
2021/12/15 07:26:04;;;;;;;;;;;;;;;4.15;100.00;99480.34;4897360;29;19932;-69
2021/12/15 07:28:32;;;;;;;;;;;;;;;4.48;100.00;99492.50;4896966;29;19927;-69
2021/12/15 07:31:00;;;;;;;;;;;;;;;4.74;100.00;99492.47;4896411;29;20247;-69
2021/12/15 07:33:27;;;;;;;;;;;;;;;5.17;100.00;99496.69;4895015;29;19935;-69
2021/12/15 07:35:55;;;;;;;;;;;;;;;5.53;100.00;99498.94;4897044;29;19927;-69
2021/12/15 07:38:23;;;;;;;;;;;;;;;5.84;100.00;99504.16;4897238;29;20407;-70
2021/12/15 07:40:51;;;;;;;;;;;;;;;6.20;100.00;99503.56;4885223;29;19931;-69
2021/12/15 07:43:24;;;;;;;;;;;;;;;6.55;100.00;99516.00;4878061;29;19939;-69
2021/12/15 07:45:59;;;;;;;;;;;;;;;6.94;100.00;99520.97;4879586;29;19939;-68
2021/12/15 07:48:29;;;;;;;;;;;;;;;7.44;100.00;99506.75;4878505;29;20202;-68
2021/12/15 07:50:58;;;;;;;;;;;;;;;7.99;100.00;99517.28;4878564;29;20325;-67
2021/12/15 07:53:26;;;;;;;;;;;;;;;8.73;100.00;99518.69;4861671;29;19935;-67
2021/12/15 07:55:54;;;;;;;;;;;;;;;9.58;100.00;99530.09;4881701;29;19962;-67
2021/12/15 07:58:23;;;;;;;;;;;;;;;9.64;100.00;99531.41;4881547;29;19938;-67
2021/12/15 08:00:52;;;;;;;;;;;;;;;10.32;100.00;99541.03;4897947;29;20605;-67
2021/12/15 08:03:20;;;;;;;;;;;;;;;11.52;100.00;99548.19;4899546;29;19935;-67
2021/12/15 08:05:50;;;;;;;;;;;;;;;12.63;100.00;99547.53;4900699;29;19931;-70
2021/12/15 08:08:17;;;;;;;;;;;;;;;13.21;99.81;99553.44;4900456;29;19938;-70
2021/12/15 08:10:45;;;;;;;;;;;;;;;13.75;95.13;99558.38;4901983;29;19931;-70
2021/12/15 08:13:15;;;;;;;;;;;;;;;14.24;91.83;99561.59;4919327;29;19946;-70
2021/12/15 08:15:43;;;;;;;;;;;;;;;14.39;90.26;99565.34;4916682;29;19931;-67
2021/12/15 08:18:11;;;;;;;;;;;;;;;14.48;86.77;99565.78;4919068;29;19937;-68
2021/12/15 08:20:38;;;;;;;;;;;;;;;14.23;83.38;99562.78;4919844;29;20201;-67
2021/12/15 08:23:06;;;;;;;;;;;;;;;13.75;86.39;99564.81;4918948;29;19934;-68
2021/12/15 08:25:35;;;;;;;;;;;;;;;12.47;93.38;99556.13;4919012;29;19938;-70
2021/12/15 08:28:03;;;;;;;;;;;;;;;12.28;99.61;99559.06;4919179;29;19935;-69
2021/12/15 08:30:31;;;;;;;;;;;;;;;12.39;96.47;99553.63;4919243;29;19927;-70
2021/12/15 08:33:00;;;;;;;;;;;;;;;12.39;95.72;99550.81;4901165;29;19938;-70
2021/12/15 08:35:31;;;;;;;;;;;;;;;12.56;94.25;99555.03;4915111;29;19931;-69
2021/12/15 08:38:05;;;;;;;;;;;;;;;12.73;92.60;99552.47;4915977;29;19931;-69
2021/12/15 08:40:35;;;;;;;;;;;;;;;12.79;92.02;99556.53;4918696;29;20316;-69
2021/12/15 08:43:04;;;;;;;;;;;;;;;12.28;93.46;99559.06;4916860;29;19935;-69
2021/12/15 08:45:31;;;;;;;;;;;;;;;11.43;99.77;99559.66;4908032;29;19938;-68
2021/12/15 08:48:01;;;;;;;;;;;;;;;10.82;100.00;99565.28;4918297;29;19938;-67
2021/12/15 08:50:30;;;;;;;;;;;;;;;10.38;100.00;99564.75;4905005;29;19936;-67
2021/12/15 08:52:58;;;;;;;;;;;;;;;9.97;100.00;99564.56;4900068;29;19931;-67
2021/12/15 08:55:26;;;;;;;;;;;;;;;9.71;100.00;99570.69;4900277;29;19927;-68
2021/12/15 08:57:58;;;;;;;;;;;;;;;9.50;100.00;99559.00;4898891;29;19939;-67
2021/12/15 09:00:26;;;;;;;;;;;;;;;9.39;100.00;99569.88;4899576;29;20239;-67
2021/12/15 09:02:55;;;;;;;;;;;;;;;9.24;100.00;99567.91;4899188;29;19938;-67
2021/12/15 09:05:23;;;;;;;;;;;;;;;9.03;100.00;99573.72;4898704;29;20002;-67
2021/12/15 09:07:54;;;;;;;;;;;;;;;8.94;100.00;99580.63;4901793;29;19931;-68
2021/12/15 09:10:23;;;;;;;;;;;;;;;8.49;100.00;99581.72;4917867;29;19931;-67
2021/12/15 09:12:51;;;;;;;;;;;;;;;8.47;100.00;99589.63;4903141;29;19928;-67
2021/12/15 09:15:19;;;;;;;;;;;;;;;8.51;100.00;99595.28;4901974;29;19932;-67
2021/12/15 09:17:46;;;;;;;;;;;;;;;8.48;100.00;99594.06;4900149;29;19931;-67
2021/12/15 09:20:17;;;;;;;;;;;;;;;8.67;100.00;99587.00;4900436;29;19958;-67
2021/12/15 09:22:44;;;;;;;;;;;;;;;8.75;100.00;99600.00;4899428;29;19931;-67
2021/12/15 09:25:13;;;;;;;;;;;;;;;8.71;100.00;99596.28;4900481;29;19934;-68
2021/12/15 09:27:43;;;;;;;;;;;;;;;8.77;100.00;99590.13;4899692;29;19943;-68
2021/12/15 09:30:13;;;;;;;;;;;;;;;8.77;100.00;99594.88;4899231;29;19935;-68
2021/12/15 09:32:40;;;;;;;;;;;;;;;8.86;100.00;99595.53;4899712;29;20344;-67
2021/12/15 09:35:09;;;;;;;;;;;;;;;8.90;100.00;99597.25;4899713;29;19931;-68
2021/12/15 09:37:37;;;;;;;;;;;;;;;8.89;100.00;99594.81;4899403;29;20698;-67
2021/12/15 09:40:06;;;;;;;;;;;;;;;8.91;100.00;99598.06;4882951;29;19931;-67
2021/12/15 09:42:38;;;;;;;;;;;;;;;8.87;100.00;99597.97;4899107;29;19939;-67
2021/12/15 10:02:04;;;;;;;;;;;;;;;8.67;100.00;99598.16;4898646;29;21574;-67
2021/12/15 10:04:49;;;;;;;;;;;;;;;8.83;100.00;99601.81;4899251;29;19932;-67
2021/12/15 10:20:54;;;;;;;;;;;;;;;9.61;100.00;99594.38;4918031;29;19940;-67
2021/12/15 10:23:31;;;;;;;;;;;;;;;9.64;100.00;99588.09;4917755;29;19934;-67
2021/12/15 10:25:58;;;;;;;;;;;;;;;9.58;100.00;99592.34;4917706;29;19931;-67
2021/12/15 10:28:27;;;;;;;;;;;;;;;9.63;100.00;99588.47;4916963;29;19931;-67
2021/12/15 10:31:03;;;;;;;;;;;;;;;9.65;100.00;99592.53;4908819;29;19931;-67
2021/12/15 10:33:30;;;;;;;;;;;;;;;9.60;100.00;99586.38;4898565;29;19931;-67
2021/12/15 10:36:01;;;;;;;;;;;;;;;9.60;100.00;99583.59;4898911;29;19934;-67
2021/12/15 10:38:30;;;;;;;;;;;;;;;9.53;100.00;99592.59;4906610;29;19931;-67
2021/12/15 10:41:01;;;;;;;;;;;;;;;9.57;100.00;99592.69;4898680;29;20611;-66
2021/12/15 10:43:51;;;;;;;;;;;;;;;9.40;100.00;99593.84;4898488;29;19957;-67
2021/12/15 10:46:24;;;;;;;;;;;;;;;9.46;100.00;99592.44;4902645;29;19959;-67
2021/12/15 10:48:52;;;;;;;;;;;;;;;9.41;100.00;99595.47;4913468;29;19931;-67
2021/12/15 10:51:20;;;;;;;;;;;;;;;9.50;100.00;99595.28;4917649;29;19938;-67
2021/12/15 10:53:48;;;;;;;;;;;;;;;9.56;100.00;99591.88;4916667;29;19938;-67
2021/12/15 10:56:17;;;;;;;;;;;;;;;9.48;100.00;99592.06;4917320;29;19927;-67
2021/12/15 10:58:47;;;;;;;;;;;;;;;9.41;100.00;99589.91;4915204;29;19931;-67
2021/12/15 11:01:33;;;;;;;;;;;;;;;9.24;100.00;99590.25;4914785;29;20312;-67
2021/12/15 11:04:01;;;;;;;;;;;;;;;9.15;100.00;99592.38;4914173;29;19942;-67
2021/12/15 11:06:33;;;;;;;;;;;;;;;9.08;100.00;99595.78;4898604;29;19935;-67
2021/12/15 11:09:10;;;;;;;;;;;;;;;8.96;100.00;99592.22;4916387;29;19931;-67
2021/12/15 11:11:54;;;;;;;;;;;;;;;8.92;100.00;99588.53;4914528;29;19942;-67
2021/12/15 11:14:30;;;;;;;;;;;;;;;8.88;100.00;99593.19;4915869;29;19931;-67
2021/12/15 11:17:07;;;;;;;;;;;;;;;8.44;100.00;99593.13;4914679;29;19938;-67
2021/12/15 11:19:38;;;;;;;;;;;;;;;8.21;100.00;99594.78;4914250;29;19931;-67
2021/12/15 11:22:23;;;;;;;;;;;;;;;8.34;100.00;99596.38;4916516;29;19931;-67
2021/12/15 11:24:51;;;;;;;;;;;;;;;8.39;100.00;99586.97;4915906;29;19939;-67
2021/12/15 11:27:19;;;;;;;;;;;;;;;8.31;100.00;99593.50;4915338;29;19938;-67
2021/12/15 11:29:47;;;;;;;;;;;;;;;8.36;100.00;99584.91;4918380;29;19927;-67
2021/12/15 11:32:32;;;;;;;;;;;;;;;8.28;100.00;99591.41;4920691;29;19931;-66
2021/12/15 11:35:07;;;;;;;;;;;;;;;8.00;100.00;99588.50;4917531;29;19931;-67
2021/12/15 11:37:50;;;;;;;;;;;;;;;7.89;100.00;99598.50;4919119;29;19942;-67
2021/12/15 11:40:23;;;;;;;;;;;;;;;7.99;100.00;99588.88;4916794;29;19938;-69
2021/12/15 11:42:51;;;;;;;;;;;;;;;7.97;100.00;99591.19;4917946;29;19938;-69
2021/12/15 11:45:18;;;;;;;;;;;;;;;7.91;100.00;99598.97;4919786;29;19928;-69
2021/12/15 11:47:46;;;;;;;;;;;;;;;7.85;100.00;99592.81;4917931;29;20312;-67
2021/12/15 11:50:16;;;;;;;;;;;;;;;8.01;100.00;99589.31;4917043;29;19939;-69
2021/12/15 11:52:45;;;;;;;;;;;;;;;7.90;100.00;99594.56;4919492;29;19931;-69
2021/12/15 11:55:25;;;;;;;;;;;;;;;7.89;100.00;99590.97;4917571;29;19931;-68
2021/12/15 11:57:53;;;;;;;;;;;;;;;7.82;100.00;99587.16;4918422;29;19931;-68
2021/12/15 12:00:21;;;;;;;;;;;;;;;7.78;100.00;99589.81;4915830;29;19931;-68
2021/12/15 12:02:52;;;;;;;;;;;;;;;7.64;100.00;99588.53;4915924;29;20022;-68
2021/12/15 12:05:19;;;;;;;;;;;;;;;7.41;100.00;99577.00;4919950;29;19962;-68
2021/12/15 12:07:48;;;;;;;;;;;;;;;7.25;100.00;99578.84;4914099;29;19935;-68
2021/12/15 12:10:19;;;;;;;;;;;;;;;7.32;100.00;99587.44;4919663;29;19952;-68
2021/12/15 12:12:52;;;;;;;;;;;;;;;7.34;100.00;99589.88;4918669;29;19935;-68
2021/12/15 12:15:21;;;;;;;;;;;;;;;7.41;100.00;99581.78;4915599;29;19927;-69
2021/12/15 12:17:51;;;;;;;;;;;;;;;7.39;100.00;99581.28;4919288;29;19927;-69
2021/12/15 12:20:18;;;;;;;;;;;;;;;7.43;100.00;99587.81;4917294;29;19938;-69
2021/12/15 12:22:47;;;;;;;;;;;;;;;7.52;100.00;99580.97;4918571;29;19931;-69
2021/12/15 12:25:20;;;;;;;;;;;;;;;7.49;100.00;99575.28;4909333;29;19931;-69
2021/12/15 12:27:48;;;;;;;;;;;;;;;7.22;100.00;99572.00;4906886;29;20307;-69
2021/12/15 12:30:22;;;;;;;;;;;;;;;7.19;100.00;99572.69;4918479;29;20324;-69
2021/12/15 12:32:50;;;;;;;;;;;;;;;7.02;100.00;99567.31;4915170;29;20209;-69
2021/12/15 12:35:31;;;;;;;;;;;;;;;7.13;100.00;99576.88;4915922;29;19961;-69
2021/12/15 12:38:00;;;;;;;;;;;;;;;7.23;100.00;99567.25;4917045;29;19938;-69
2021/12/15 12:40:30;;;;;;;;;;;;;;;7.31;100.00;99566.34;4918437;29;19938;-69
2021/12/15 12:42:58;;;;;;;;;;;;;;;7.27;100.00;99569.00;4916121;29;19931;-68
2021/12/15 12:45:39;;;;;;;;;;;;;;;7.23;100.00;99573.66;4915743;29;19931;-69
2021/12/15 12:59:25;;;;;;;;;;;;;;;7.05;100.00;99558.28;4915150;29;20343;-69
2021/12/15 13:01:53;;;;;;;;;;;;;;;7.07;100.00;99557.94;4917687;29;19931;-69
2021/12/15 13:04:21;;;;;;;;;;;;;;;7.02;100.00;99553.41;4915702;29;19951;-69
2021/12/15 13:06:49;;;;;;;;;;;;;;;6.98;100.00;99554.44;4917228;29;19935;-69
2021/12/15 13:09:19;;;;;;;;;;;;;;;7.00;100.00;99552.94;4909770;29;20265;-69
2021/12/15 13:11:49;;;;;;;;;;;;;;;6.97;100.00;99556.41;4917316;29;19935;-69
2021/12/15 13:14:18;;;;;;;;;;;;;;;6.88;100.00;99554.88;4916090;29;19927;-69
2021/12/15 13:16:48;;;;;;;;;;;;;;;6.90;100.00;99558.94;4914414;29;19935;-69
2021/12/15 13:19:27;;;;;;;;;;;;;;;6.90;100.00;99547.81;4914157;29;19931;-69
2021/12/15 13:30:48;;;;;;;;;;;;;;;6.70;100.00;99550.66;4916641;29;20201;-69
2021/12/15 13:33:18;;;;;;;;;;;;;;;6.71;100.00;99547.53;4897056;29;19934;-69
2021/12/15 13:35:46;;;;;;;;;;;;;;;6.70;100.00;99554.25;4915631;29;19938;-69
2021/12/15 13:38:15;;;;;;;;;;;;;;;6.66;100.00;99558.03;4917227;29;19935;-69
2021/12/15 13:41:02;;;;;;;;;;;;;;;6.63;100.00;99553.19;4916114;29;20026;-69
2021/12/15 13:43:32;;;;;;;;;;;;;;;6.48;100.00;99560.97;4915980;29;19938;-69
2021/12/15 13:46:00;;;;;;;;;;;;;;;6.48;100.00;99551.84;4912705;29;19938;-69
2021/12/15 13:48:46;;;;;;;;;;;;;;;6.45;100.00;99558.09;4916926;29;19942;-69
2021/12/15 13:51:13;;;;;;;;;;;;;;;6.31;100.00;99554.78;4914502;29;19941;-69
2021/12/15 13:53:41;;;;;;;;;;;;;;;6.33;100.00;99558.03;4915481;29;19927;-69
2021/12/15 13:56:08;;;;;;;;;;;;;;;6.25;100.00;99564.47;4915992;29;20568;-69
2021/12/15 13:58:35;;;;;;;;;;;;;;;6.24;100.00;99560.03;4914736;29;19942;-69
2021/12/15 14:01:05;;;;;;;;;;;;;;;6.22;100.00;99565.13;4898225;29;20027;-69
2021/12/15 14:03:40;;;;;;;;;;;;;;;6.17;100.00;99562.53;4916004;29;20335;-69
2021/12/15 14:06:11;;;;;;;;;;;;;;;6.17;100.00;99568.91;4915718;29;20005;-69
2021/12/15 14:08:46;;;;;;;;;;;;;;;6.23;100.00;99572.31;4913627;29;19931;-69
2021/12/15 14:11:17;;;;;;;;;;;;;;;6.05;100.00;99563.28;4897501;29;20233;-69
2021/12/15 14:13:47;;;;;;;;;;;;;;;6.08;100.00;99564.59;4894532;29;19932;-69
2021/12/15 14:16:28;;;;;;;;;;;;;;;6.01;100.00;99567.91;4897624;29;19939;-70
2021/12/15 14:18:56;;;;;;;;;;;;;;;5.97;100.00;99562.19;4897874;29;19931;-69
2021/12/15 14:21:23;;;;;;;;;;;;;;;5.89;100.00;99563.06;4898100;29;19951;-69
2021/12/15 14:23:53;;;;;;;;;;;;;;;5.85;100.00;99562.13;4895674;29;19931;-69
2021/12/15 14:26:30;;;;;;;;;;;;;;;5.86;100.00;99562.94;4898154;29;19931;-69
2021/12/15 14:28:59;;;;;;;;;;;;;;;5.87;100.00;99567.31;4888043;29;19934;-69
2021/12/15 14:31:28;;;;;;;;;;;;;;;5.78;100.00;99578.47;4895998;29;19927;-69
2021/12/15 14:33:57;;;;;;;;;;;;;;;5.80;100.00;99576.16;4889698;29;19927;-69
2021/12/15 14:36:32;;;;;;;;;;;;;;;5.78;100.00;99584.00;4896565;29;20331;-69
2021/12/15 14:39:01;;;;;;;;;;;;;;;5.83;100.00;99581.03;4898243;29;19931;-69
2021/12/15 14:41:44;;;;;;;;;;;;;;;5.82;100.00;99582.19;4895329;29;19938;-69
2021/12/15 14:44:14;;;;;;;;;;;;;;;5.76;100.00;99589.09;4897381;29;19927;-69
2021/12/15 14:46:41;;;;;;;;;;;;;;;5.63;100.00;99603.19;4897720;29;19931;-69
2021/12/15 14:49:10;;;;;;;;;;;;;;;5.57;100.00;99612.84;4898706;29;20598;-69
2021/12/15 14:51:40;;;;;;;;;;;;;;;5.63;100.00;99614.28;4897982;29;19935;-69
2021/12/15 14:54:07;;;;;;;;;;;;;;;5.51;100.00;99601.13;4896570;29;19943;-69
2021/12/15 14:56:46;;;;;;;;;;;;;;;5.32;100.00;99593.22;4882227;29;19931;-69
2021/12/15 14:59:18;;;;;;;;;;;;;;;5.31;100.00;99599.06;4897790;29;19935;-69
2021/12/15 15:01:48;;;;;;;;;;;;;;;5.27;100.00;99612.78;4897146;29;19928;-69
2021/12/15 15:04:16;;;;;;;;;;;;;;;5.21;100.00;99613.28;4896824;29;20236;-69
2021/12/15 15:06:43;;;;;;;;;;;;;;;5.15;100.00;99609.06;4898489;29;19935;-69
2021/12/15 15:09:18;;;;;;;;;;;;;;;5.21;100.00;99610.50;4895244;29;19931;-69
2021/12/15 15:12:14;;;;;;;;;;;;;;;5.19;100.00;99610.03;4896972;29;19932;-69
2021/12/15 15:14:42;;;;;;;;;;;;;;;5.15;100.00;99609.06;4897691;29;19932;-69
2021/12/15 15:17:25;;;;;;;;;;;;;;;5.13;100.00;99611.38;4897870;29;20241;-69
2021/12/15 15:19:54;;;;;;;;;;;;;;;5.10;100.00;99621.16;4882722;29;19939;-69
2021/12/15 15:22:27;;;;;;;;;;;;;;;4.84;100.00;99619.59;4879529;29;19932;-69
2021/12/15 15:24:55;;;;;;;;;;;;;;;4.72;100.00;99623.00;4887178;29;20240;-69
2021/12/15 15:27:23;;;;;;;;;;;;;;;4.72;100.00;99628.53;4898042;29;19931;-69
2021/12/15 15:29:54;;;;;;;;;;;;;;;4.75;100.00;99633.44;4881486;29;19928;-69
2021/12/15 15:32:26;;;;;;;;;;;;;;;4.56;100.00;99628.22;4898185;29;19928;-69
2021/12/15 15:34:55;;;;;;;;;;;;;;;4.42;100.00;99630.34;4897952;29;19935;-69
2021/12/15 15:37:28;;;;;;;;;;;;;;;4.26;100.00;99631.13;4898490;29;19938;-69
2021/12/15 15:40:00;;;;;;;;;;;;;;;4.08;100.00;99627.53;4896324;29;20232;-70
2021/12/15 15:42:28;;;;;;;;;;;;;;;3.91;100.00;99635.81;4898299;29;19932;-69
2021/12/15 15:44:56;;;;;;;;;;;;;;;3.80;100.00;99634.47;4898177;29;19931;-69
2021/12/15 15:47:23;;;;;;;;;;;;;;;3.74;100.00;99641.28;4898042;29;19938;-69
2021/12/15 15:49:56;;;;;;;;;;;;;;;3.71;100.00;99633.63;4898493;29;19939;-69
2021/12/15 15:52:23;;;;;;;;;;;;;;;3.76;100.00;99636.25;4898567;29;19931;-69
2021/12/15 15:54:51;;;;;;;;;;;;;;;3.67;100.00;99641.72;4897687;29;19935;-69
2021/12/15 15:57:22;;;;;;;;;;;;;;;3.66;100.00;99640.13;4897801;29;20391;-69
2021/12/15 15:59:52;;;;;;;;;;;;;;;3.62;100.00;99638.31;4888283;29;20329;-69
2021/12/15 16:02:20;;;;;;;;;;;;;;;3.58;100.00;99634.53;4880959;29;19932;-69
2021/12/15 16:04:48;;;;;;;;;;;;;;;3.60;100.00;99635.84;4892677;29;20704;-69
2021/12/15 16:07:16;;;;;;;;;;;;;;;3.61;100.00;99633.91;4897689;29;19938;-69
2021/12/15 16:09:46;;;;;;;;;;;;;;;3.59;100.00;99633.41;4908716;29;19935;-69
2021/12/15 16:12:16;;;;;;;;;;;;;;;3.73;100.00;99628.59;4915988;29;19935;-69
2021/12/15 16:14:44;;;;;;;;;;;;;;;3.83;100.00;99631.06;4900141;29;19931;-69
2021/12/15 16:17:20;;;;;;;;;;;;;;;3.88;100.00;99628.97;4917354;29;20228;-69
2021/12/15 16:19:54;;;;;;;;;;;;;;;3.96;100.00;99630.13;4917442;29;19931;-69
2021/12/15 16:25:31;;;;;;;;;;;;;;;4.09;100.00;99637.47;4917652;29;20354;-69
2021/12/15 16:28:19;;;;;;;;;;;;;;;4.05;100.00;99632.91;4898995;29;20352;-69
2021/12/15 16:30:48;;;;;;;;;;;;;;;4.06;100.00;99635.34;4912294;29;19934;-69
2021/12/15 16:33:26;;;;;;;;;;;;;;;4.08;100.00;99644.16;4903913;29;19939;-69
2021/12/15 16:35:56;;;;;;;;;;;;;;;4.04;100.00;99645.91;4903030;29;20368;-69
2021/12/15 16:38:27;;;;;;;;;;;;;;;4.01;100.00;99643.00;4918868;29;19943;-69
2021/12/15 16:40:56;;;;;;;;;;;;;;;3.95;100.00;99637.59;4917791;29;20244;-69
2021/12/15 16:43:24;;;;;;;;;;;;;;;3.88;100.00;99640.03;4916908;29;20325;-69
2021/12/15 16:45:51;;;;;;;;;;;;;;;3.92;100.00;99637.44;4917948;29;19931;-69
2021/12/15 16:48:20;;;;;;;;;;;;;;;3.97;100.00;99637.28;4917671;29;19942;-69
2021/12/15 16:50:52;;;;;;;;;;;;;;;4.02;100.00;99648.19;4918755;29;19931;-69
2021/12/15 16:53:21;;;;;;;;;;;;;;;4.05;100.00;99650.31;4916656;29;19935;-69
2021/12/15 16:55:48;;;;;;;;;;;;;;;4.12;100.00;99650.66;4914148;29;19931;-69
2021/12/15 16:58:16;;;;;;;;;;;;;;;4.08;100.00;99655.22;4917940;29;20347;-69
2021/12/15 17:00:43;;;;;;;;;;;;;;;3.94;100.00;99652.56;4917378;29;20210;-69
2021/12/15 17:03:11;;;;;;;;;;;;;;;3.88;100.00;99659.41;4919123;29;19927;-69
2021/12/15 17:05:44;;;;;;;;;;;;;;;3.78;100.00;99664.41;4916705;29;19931;-69
2021/12/15 17:08:14;;;;;;;;;;;;;;;3.70;100.00;99660.47;4918607;29;20351;-69
2021/12/15 17:10:44;;;;;;;;;;;;;;;3.81;100.00;99667.34;4917728;29;19931;-69
2021/12/15 17:13:13;;;;;;;;;;;;;;;3.82;100.00;99673.69;4911067;29;19936;-69
2021/12/15 17:18:21;;;;;;;;;;;;;;;3.86;100.00;99683.78;4903570;29;20324;-69
2021/12/15 17:20:57;;;;;;;;;;;;;;;3.88;100.00;99678.78;4910964;29;19931;-69
2021/12/15 17:23:26;;;;;;;;;;;;;;;3.81;100.00;99680.38;4914960;29;20267;-69
2021/12/15 17:25:56;;;;;;;;;;;;;;;3.64;100.00;99674.78;4910560;29;19935;-69
2021/12/15 17:28:25;;;;;;;;;;;;;;;3.67;100.00;99669.41;4914930;29;19927;-69
2021/12/15 17:31:16;;;;;;;;;;;;;;;3.64;100.00;99675.59;4916691;29;19969;-69
2021/12/15 17:33:55;;;;;;;;;;;;;;;3.66;100.00;99681.63;4912683;29;19934;-69
2021/12/15 17:36:43;;;;;;;;;;;;;;;3.60;100.00;99682.06;4915131;29;19935;-69
2021/12/15 17:39:26;;;;;;;;;;;;;;;3.53;100.00;99678.94;4904401;29;20313;-69
2021/12/15 17:41:53;;;;;;;;;;;;;;;3.51;100.00;99678.44;4907811;29;19927;-69
2021/12/15 17:44:32;;;;;;;;;;;;;;;3.55;100.00;99688.53;4916638;29;19928;-69
2021/12/15 17:47:05;;;;;;;;;;;;;;;3.50;100.00;99690.63;4917237;29;19938;-69
2021/12/15 17:49:35;;;;;;;;;;;;;;;3.51;100.00;99684.78;4906734;29;19941;-69
2021/12/15 17:52:03;;;;;;;;;;;;;;;3.67;100.00;99690.69;4915998;29;20224;-69
2021/12/15 17:54:32;;;;;;;;;;;;;;;3.68;100.00;99686.81;4912512;29;19957;-69
2021/12/15 17:57:01;;;;;;;;;;;;;;;3.79;100.00;99693.72;4913787;29;19931;-69
2021/12/15 17:59:29;;;;;;;;;;;;;;;3.83;100.00;99698.28;4916494;29;19931;-69
2021/12/15 18:01:57;;;;;;;;;;;;;;;3.85;100.00;99693.25;4911985;29;20332;-69
2021/12/15 18:04:25;;;;;;;;;;;;;;;3.83;100.00;99697.47;4913659;29;20379;-69
2021/12/15 18:06:53;;;;;;;;;;;;;;;3.91;100.00;99700.25;4913911;29;19927;-70
2021/12/15 18:09:25;;;;;;;;;;;;;;;3.89;100.00;99696.16;4905157;29;19936;-69
2021/12/15 18:11:57;;;;;;;;;;;;;;;3.91;100.00;99691.94;4896678;29;20224;-69
2021/12/15 18:14:25;;;;;;;;;;;;;;;3.86;100.00;99694.84;4890655;29;19966;-69
2021/12/15 18:16:53;;;;;;;;;;;;;;;3.83;100.00;99701.06;4885888;29;19935;-69
2021/12/15 18:19:21;;;;;;;;;;;;;;;3.85;100.00;99697.94;4895294;29;19927;-69
2021/12/15 18:21:53;;;;;;;;;;;;;;;3.87;100.00;99703.97;4897138;29;19962;-69
2021/12/15 18:24:21;;;;;;;;;;;;;;;3.84;100.00;99699.91;4896311;29;19931;-69
2021/12/15 18:26:50;;;;;;;;;;;;;;;3.84;100.00;99701.84;4896172;29;19938;-69
2021/12/15 18:29:18;;;;;;;;;;;;;;;3.78;100.00;99703.97;4877603;29;19938;-69
2021/12/15 18:31:47;;;;;;;;;;;;;;;3.76;100.00;99700.69;4895784;29;20245;-69
2021/12/15 18:34:15;;;;;;;;;;;;;;;3.81;100.00;99703.31;4897222;29;19939;-69
2021/12/15 18:36:44;;;;;;;;;;;;;;;3.85;100.00;99703.50;4893567;29;20321;-69
2021/12/15 18:39:13;;;;;;;;;;;;;;;3.90;100.00;99706.09;4898727;29;19935;-69
2021/12/15 18:41:41;;;;;;;;;;;;;;;3.87;100.00;99710.34;4894638;29;20430;-69
2021/12/15 18:44:08;;;;;;;;;;;;;;;3.89;100.00;99715.53;4898735;29;19939;-69
2021/12/15 18:46:36;;;;;;;;;;;;;;;3.83;100.00;99717.66;4897691;29;19943;-67
2021/12/15 18:49:10;;;;;;;;;;;;;;;3.80;100.00;99715.50;4897004;29;19939;-67
2021/12/15 18:51:38;;;;;;;;;;;;;;;3.77;100.00;99718.09;4895520;29;19932;-67
2021/12/15 18:54:06;;;;;;;;;;;;;;;3.79;100.00;99715.84;4893487;29;19931;-67
2021/12/15 18:56:34;;;;;;;;;;;;;;;3.71;100.00;99717.44;4896704;29;19938;-67
2021/12/15 18:59:02;;;;;;;;;;;;;;;3.69;100.00;99716.13;4897748;29;19939;-67
2021/12/15 19:01:36;;;;;;;;;;;;;;;3.62;100.00;99713.00;4884963;29;19939;-67
2021/12/15 19:04:05;;;;;;;;;;;;;;;3.57;100.00;99713.94;4883778;29;19935;-67
2021/12/15 19:06:32;;;;;;;;;;;;;;;3.54;100.00;99711.00;4885160;29;19931;-67
2021/12/15 19:09:00;;;;;;;;;;;;;;;3.51;100.00;99714.38;4884661;29;20639;-67
2021/12/15 19:11:27;;;;;;;;;;;;;;;3.44;100.00;99716.78;4884951;29;19934;-67
2021/12/15 19:13:55;;;;;;;;;;;;;;;3.36;100.00;99704.53;4883904;29;19931;-67
2021/12/15 19:16:23;;;;;;;;;;;;;;;3.37;100.00;99713.66;4884892;29;19942;-67
2021/12/15 19:18:51;;;;;;;;;;;;;;;3.33;100.00;99710.69;4885193;29;19936;-67
2021/12/15 19:21:19;;;;;;;;;;;;;;;3.30;100.00;99709.38;4884911;29;20236;-67
2021/12/15 19:23:46;;;;;;;;;;;;;;;3.31;100.00;99715.72;4884604;29;19935;-67
2021/12/15 19:26:15;;;;;;;;;;;;;;;3.24;100.00;99709.84;4884099;29;19931;-67
2021/12/15 19:28:44;;;;;;;;;;;;;;;3.09;100.00;99713.81;4884666;29;20333;-67
2021/12/15 19:31:11;;;;;;;;;;;;;;;3.06;100.00;99710.84;4886156;29;19936;-67
2021/12/15 19:33:41;;;;;;;;;;;;;;;3.07;100.00;99716.06;4885847;29;20472;-67
2021/12/15 19:36:09;;;;;;;;;;;;;;;3.03;100.00;99706.75;4886264;29;20315;-67
2021/12/15 19:38:36;;;;;;;;;;;;;;;2.98;100.00;99706.09;4885039;29;20441;-67
2021/12/15 19:41:04;;;;;;;;;;;;;;;2.99;100.00;99708.53;4886238;29;19939;-67
2021/12/15 19:43:32;;;;;;;;;;;;;;;3.02;100.00;99712.59;4885925;29;19935;-67
2021/12/15 19:46:00;;;;;;;;;;;;;;;3.02;100.00;99716.19;4884797;29;20345;-67
2021/12/15 19:48:33;;;;;;;;;;;;;;;3.04;100.00;99716.69;4885552;29;19966;-67
